sensor_id;sensor_type;location;lat;lon;timestamp;P1;durP1;ratioP1;P2;durP2;ratioP2
7587;SDS011;3835;48.850;8.938;2023-07-02T00:01:26;16.87;;;15.97;;
7587;SDS011;3835;48.850;8.938;2023-07-02T00:03:53;21.30;;;20.10;;
7587;SDS011;3835;48.850;8.938;2023-07-02T00:06:20;21.90;;;20.70;;
7587;SDS011;3835;48.850;8.938;2023-07-02T00:08:47;19.07;;;18.07;;
7587;SDS011;3835;48.850;8.938;2023-07-02T00:11:13;19.07;;;18.10;;
7587;SDS011;3835;48.850;8.938;2023-07-02T00:13:41;18.23;;;17.13;;
7587;SDS011;3835;48.850;8.938;2023-07-02T00:16:08;22.47;;;21.07;;
7587;SDS011;3835;48.850;8.938;2023-07-02T00:18:36;20.53;;;19.30;;
7587;SDS011;3835;48.850;8.938;2023-07-02T00:21:05;17.63;;;16.63;;
7587;SDS011;3835;48.850;8.938;2023-07-02T00:23:32;17.90;;;16.90;;
7587;SDS011;3835;48.850;8.938;2023-07-02T00:25:58;16.40;;;15.60;;
7587;SDS011;3835;48.850;8.938;2023-07-02T00:28:25;15.77;;;14.87;;
7587;SDS011;3835;48.850;8.938;2023-07-02T00:30:52;18.80;;;17.63;;
7587;SDS011;3835;48.850;8.938;2023-07-02T00:33:19;18.17;;;17.07;;
7587;SDS011;3835;48.850;8.938;2023-07-02T00:35:47;17.60;;;16.50;;
7587;SDS011;3835;48.850;8.938;2023-07-02T00:38:13;18.10;;;17.10;;
7587;SDS011;3835;48.850;8.938;2023-07-02T00:40:40;16.83;;;15.93;;
7587;SDS011;3835;48.850;8.938;2023-07-02T00:43:07;19.43;;;18.23;;
7587;SDS011;3835;48.850;8.938;2023-07-02T00:45:38;17.97;;;16.87;;
7587;SDS011;3835;48.850;8.938;2023-07-02T00:48:05;18.13;;;16.97;;
7587;SDS011;3835;48.850;8.938;2023-07-02T00:50:32;16.13;;;15.13;;
7587;SDS011;3835;48.850;8.938;2023-07-02T00:53:00;17.50;;;16.37;;
7587;SDS011;3835;48.850;8.938;2023-07-02T00:55:27;19.10;;;18.00;;
7587;SDS011;3835;48.850;8.938;2023-07-02T00:57:53;18.03;;;17.10;;
7587;SDS011;3835;48.850;8.938;2023-07-02T01:00:21;16.93;;;16.03;;
7587;SDS011;3835;48.850;8.938;2023-07-02T01:02:52;18.00;;;17.00;;
7587;SDS011;3835;48.850;8.938;2023-07-02T01:05:24;19.10;;;18.10;;
7587;SDS011;3835;48.850;8.938;2023-07-02T01:07:51;17.03;;;16.03;;
7587;SDS011;3835;48.850;8.938;2023-07-02T01:10:19;18.80;;;17.70;;
7587;SDS011;3835;48.850;8.938;2023-07-02T01:12:46;17.83;;;16.77;;
7587;SDS011;3835;48.850;8.938;2023-07-02T01:15:14;19.53;;;18.37;;
7587;SDS011;3835;48.850;8.938;2023-07-02T01:17:41;18.43;;;17.33;;
7587;SDS011;3835;48.850;8.938;2023-07-02T01:20:11;15.27;;;14.17;;
7587;SDS011;3835;48.850;8.938;2023-07-02T01:22:38;18.27;;;17.17;;
7587;SDS011;3835;48.850;8.938;2023-07-02T01:25:06;20.10;;;19.00;;
7587;SDS011;3835;48.850;8.938;2023-07-02T01:27:34;19.23;;;17.90;;
7587;SDS011;3835;48.850;8.938;2023-07-02T01:30:01;18.67;;;17.57;;
7587;SDS011;3835;48.850;8.938;2023-07-02T01:32:29;20.83;;;19.83;;
7587;SDS011;3835;48.850;8.938;2023-07-02T01:34:56;21.53;;;20.33;;
7587;SDS011;3835;48.850;8.938;2023-07-02T01:37:25;19.57;;;18.47;;
7587;SDS011;3835;48.850;8.938;2023-07-02T01:39:52;17.80;;;16.60;;
7587;SDS011;3835;48.850;8.938;2023-07-02T01:42:19;17.07;;;15.93;;
7587;SDS011;3835;48.850;8.938;2023-07-02T01:44:46;15.83;;;14.93;;
7587;SDS011;3835;48.850;8.938;2023-07-02T01:47:14;17.47;;;16.57;;
7587;SDS011;3835;48.850;8.938;2023-07-02T01:49:41;18.53;;;17.47;;
7587;SDS011;3835;48.850;8.938;2023-07-02T01:52:08;18.20;;;17.07;;
7587;SDS011;3835;48.850;8.938;2023-07-02T01:54:36;17.63;;;16.43;;
7587;SDS011;3835;48.850;8.938;2023-07-02T01:57:03;17.87;;;16.87;;
7587;SDS011;3835;48.850;8.938;2023-07-02T01:59:31;19.57;;;18.27;;
7587;SDS011;3835;48.850;8.938;2023-07-02T02:01:57;17.50;;;16.57;;
7587;SDS011;3835;48.850;8.938;2023-07-02T02:04:24;18.10;;;17.07;;
7587;SDS011;3835;48.850;8.938;2023-07-02T02:06:51;18.07;;;17.07;;
7587;SDS011;3835;48.850;8.938;2023-07-02T02:09:18;18.47;;;17.33;;
7587;SDS011;3835;48.850;8.938;2023-07-02T02:11:47;19.53;;;18.43;;
7587;SDS011;3835;48.850;8.938;2023-07-02T02:14:15;17.63;;;16.63;;
7587;SDS011;3835;48.850;8.938;2023-07-02T02:16:42;17.63;;;16.67;;
7587;SDS011;3835;48.850;8.938;2023-07-02T02:19:11;18.53;;;17.43;;
7587;SDS011;3835;48.850;8.938;2023-07-02T02:21:38;18.07;;;17.07;;
7587;SDS011;3835;48.850;8.938;2023-07-02T02:24:05;18.07;;;16.97;;
7587;SDS011;3835;48.850;8.938;2023-07-02T02:26:32;16.30;;;15.40;;
7587;SDS011;3835;48.850;8.938;2023-07-02T02:29:00;17.93;;;16.93;;
7587;SDS011;3835;48.850;8.938;2023-07-02T02:31:27;17.40;;;15.97;;
7587;SDS011;3835;48.850;8.938;2023-07-02T02:33:54;23.50;;;21.97;;
7587;SDS011;3835;48.850;8.938;2023-07-02T02:36:21;21.13;;;19.73;;
7587;SDS011;3835;48.850;8.938;2023-07-02T02:38:48;18.90;;;17.83;;
7587;SDS011;3835;48.850;8.938;2023-07-02T02:41:15;15.80;;;14.97;;
7587;SDS011;3835;48.850;8.938;2023-07-02T02:43:41;17.07;;;16.17;;
7587;SDS011;3835;48.850;8.938;2023-07-02T02:46:10;17.47;;;16.33;;
7587;SDS011;3835;48.850;8.938;2023-07-02T02:48:37;16.77;;;15.63;;
7587;SDS011;3835;48.850;8.938;2023-07-02T02:51:04;16.70;;;15.80;;
7587;SDS011;3835;48.850;8.938;2023-07-02T02:53:31;18.17;;;16.97;;
7587;SDS011;3835;48.850;8.938;2023-07-02T02:55:58;18.37;;;17.07;;
7587;SDS011;3835;48.850;8.938;2023-07-02T02:58:24;17.67;;;16.50;;
7587;SDS011;3835;48.850;8.938;2023-07-02T03:00:53;18.63;;;17.43;;
7587;SDS011;3835;48.850;8.938;2023-07-02T03:03:21;18.63;;;17.50;;
7587;SDS011;3835;48.850;8.938;2023-07-02T03:05:49;20.77;;;19.67;;
7587;SDS011;3835;48.850;8.938;2023-07-02T03:08:16;18.33;;;17.03;;
7587;SDS011;3835;48.850;8.938;2023-07-02T03:10:42;19.80;;;18.67;;
7587;SDS011;3835;48.850;8.938;2023-07-02T03:13:09;18.43;;;17.17;;
7587;SDS011;3835;48.850;8.938;2023-07-02T03:15:36;18.27;;;16.83;;
7587;SDS011;3835;48.850;8.938;2023-07-02T03:18:03;17.70;;;16.60;;
7587;SDS011;3835;48.850;8.938;2023-07-02T03:20:31;18.33;;;17.23;;
7587;SDS011;3835;48.850;8.938;2023-07-02T03:22:58;17.00;;;15.87;;
7587;SDS011;3835;48.850;8.938;2023-07-02T03:25:25;18.17;;;16.87;;
7587;SDS011;3835;48.850;8.938;2023-07-02T03:27:51;18.23;;;16.93;;
7587;SDS011;3835;48.850;8.938;2023-07-02T03:30:18;18.37;;;16.90;;
7587;SDS011;3835;48.850;8.938;2023-07-02T03:32:45;19.93;;;18.60;;
7587;SDS011;3835;48.850;8.938;2023-07-02T03:35:12;17.93;;;16.83;;
7587;SDS011;3835;48.850;8.938;2023-07-02T03:37:40;17.87;;;16.60;;
7587;SDS011;3835;48.850;8.938;2023-07-02T03:40:09;17.60;;;16.33;;
7587;SDS011;3835;48.850;8.938;2023-07-02T03:42:35;16.50;;;15.27;;
7587;SDS011;3835;48.850;8.938;2023-07-02T03:45:02;16.57;;;15.40;;
7587;SDS011;3835;48.850;8.938;2023-07-02T03:47:30;18.13;;;16.77;;
7587;SDS011;3835;48.850;8.938;2023-07-02T03:49:56;16.50;;;15.40;;
7587;SDS011;3835;48.850;8.938;2023-07-02T03:52:23;17.90;;;16.60;;
7587;SDS011;3835;48.850;8.938;2023-07-02T03:54:51;19.93;;;18.73;;
7587;SDS011;3835;48.850;8.938;2023-07-02T03:57:18;19.70;;;18.13;;
7587;SDS011;3835;48.850;8.938;2023-07-02T03:59:45;16.93;;;15.83;;
7587;SDS011;3835;48.850;8.938;2023-07-02T04:02:12;18.47;;;17.13;;
7587;SDS011;3835;48.850;8.938;2023-07-02T04:04:39;19.23;;;18.03;;
7587;SDS011;3835;48.850;8.938;2023-07-02T04:07:06;18.53;;;17.33;;
7587;SDS011;3835;48.850;8.938;2023-07-02T04:09:32;17.10;;;16.00;;
7587;SDS011;3835;48.850;8.938;2023-07-02T04:12:01;18.97;;;17.67;;
7587;SDS011;3835;48.850;8.938;2023-07-02T04:14:27;18.27;;;17.10;;
7587;SDS011;3835;48.850;8.938;2023-07-02T04:16:54;17.73;;;16.57;;
7587;SDS011;3835;48.850;8.938;2023-07-02T04:19:21;18.57;;;17.30;;
7587;SDS011;3835;48.850;8.938;2023-07-02T04:21:48;18.10;;;16.70;;
7587;SDS011;3835;48.850;8.938;2023-07-02T04:24:15;18.30;;;17.00;;
7587;SDS011;3835;48.850;8.938;2023-07-02T04:26:41;17.80;;;16.67;;
7587;SDS011;3835;48.850;8.938;2023-07-02T04:29:11;19.20;;;17.77;;
7587;SDS011;3835;48.850;8.938;2023-07-02T04:31:37;17.83;;;16.73;;
7587;SDS011;3835;48.850;8.938;2023-07-02T04:34:04;17.73;;;16.53;;
7587;SDS011;3835;48.850;8.938;2023-07-02T04:36:31;17.63;;;16.53;;
7587;SDS011;3835;48.850;8.938;2023-07-02T04:38:58;20.33;;;18.80;;
7587;SDS011;3835;48.850;8.938;2023-07-02T04:41:25;20.80;;;19.30;;
7587;SDS011;3835;48.850;8.938;2023-07-02T04:43:54;20.47;;;18.80;;
7587;SDS011;3835;48.850;8.938;2023-07-02T04:46:22;17.20;;;15.70;;
7587;SDS011;3835;48.850;8.938;2023-07-02T04:48:49;19.23;;;17.93;;
7587;SDS011;3835;48.850;8.938;2023-07-02T04:51:16;18.00;;;16.77;;
7587;SDS011;3835;48.850;8.938;2023-07-02T04:53:43;17.47;;;16.30;;
7587;SDS011;3835;48.850;8.938;2023-07-02T04:56:09;18.00;;;16.70;;
7587;SDS011;3835;48.850;8.938;2023-07-02T04:58:36;20.33;;;18.97;;
7587;SDS011;3835;48.850;8.938;2023-07-02T05:01:03;20.03;;;18.70;;
7587;SDS011;3835;48.850;8.938;2023-07-02T05:03:31;19.27;;;17.83;;
7587;SDS011;3835;48.850;8.938;2023-07-02T05:05:58;17.00;;;15.90;;
7587;SDS011;3835;48.850;8.938;2023-07-02T05:08:25;17.33;;;16.23;;
7587;SDS011;3835;48.850;8.938;2023-07-02T05:10:51;18.47;;;17.07;;
7587;SDS011;3835;48.850;8.938;2023-07-02T05:13:18;19.03;;;17.77;;
7587;SDS011;3835;48.850;8.938;2023-07-02T05:15:45;17.23;;;16.13;;
7587;SDS011;3835;48.850;8.938;2023-07-02T05:18:12;20.40;;;19.00;;
7587;SDS011;3835;48.850;8.938;2023-07-02T05:20:40;19.37;;;17.63;;
7587;SDS011;3835;48.850;8.938;2023-07-02T05:23:07;17.53;;;16.37;;
7587;SDS011;3835;48.850;8.938;2023-07-02T05:25:34;20.87;;;19.47;;
7587;SDS011;3835;48.850;8.938;2023-07-02T05:28:01;18.80;;;17.60;;
7587;SDS011;3835;48.850;8.938;2023-07-02T05:30:27;17.23;;;15.63;;
7587;SDS011;3835;48.850;8.938;2023-07-02T05:32:54;20.23;;;18.83;;
7587;SDS011;3835;48.850;8.938;2023-07-02T05:35:21;22.40;;;21.03;;
7587;SDS011;3835;48.850;8.938;2023-07-02T05:37:49;28.30;;;26.27;;
7587;SDS011;3835;48.850;8.938;2023-07-02T05:40:16;21.27;;;19.47;;
7587;SDS011;3835;48.850;8.938;2023-07-02T05:42:42;25.20;;;23.80;;
7587;SDS011;3835;48.850;8.938;2023-07-02T05:45:10;21.30;;;20.10;;
7587;SDS011;3835;48.850;8.938;2023-07-02T05:47:37;18.70;;;17.60;;
7587;SDS011;3835;48.850;8.938;2023-07-02T05:50:04;20.50;;;18.87;;
7587;SDS011;3835;48.850;8.938;2023-07-02T05:52:31;19.10;;;17.90;;
7587;SDS011;3835;48.850;8.938;2023-07-02T05:54:59;23.23;;;21.80;;
7587;SDS011;3835;48.850;8.938;2023-07-02T05:57:26;20.07;;;18.77;;
7587;SDS011;3835;48.850;8.938;2023-07-02T05:59:53;18.93;;;17.63;;
7587;SDS011;3835;48.850;8.938;2023-07-02T06:02:20;18.63;;;17.43;;
7587;SDS011;3835;48.850;8.938;2023-07-02T06:04:46;17.83;;;16.57;;
7587;SDS011;3835;48.850;8.938;2023-07-02T06:07:13;19.67;;;18.47;;
7587;SDS011;3835;48.850;8.938;2023-07-02T06:09:40;21.47;;;19.70;;
7587;SDS011;3835;48.850;8.938;2023-07-02T06:12:08;21.67;;;20.00;;
7587;SDS011;3835;48.850;8.938;2023-07-02T06:14:35;19.77;;;18.10;;
7587;SDS011;3835;48.850;8.938;2023-07-02T06:17:02;23.47;;;21.70;;
7587;SDS011;3835;48.850;8.938;2023-07-02T06:19:31;24.17;;;22.57;;
7587;SDS011;3835;48.850;8.938;2023-07-02T06:21:58;26.13;;;24.40;;
7587;SDS011;3835;48.850;8.938;2023-07-02T06:24:25;37.00;;;34.77;;
7587;SDS011;3835;48.850;8.938;2023-07-02T06:26:52;21.00;;;19.40;;
7587;SDS011;3835;48.850;8.938;2023-07-02T06:29:21;23.70;;;22.00;;
7587;SDS011;3835;48.850;8.938;2023-07-02T06:31:48;26.70;;;25.10;;
7587;SDS011;3835;48.850;8.938;2023-07-02T06:34:15;38.50;;;36.20;;
7587;SDS011;3835;48.850;8.938;2023-07-02T06:36:42;33.07;;;31.17;;
7587;SDS011;3835;48.850;8.938;2023-07-02T06:39:09;20.07;;;18.57;;
7587;SDS011;3835;48.850;8.938;2023-07-02T06:41:36;20.40;;;18.90;;
7587;SDS011;3835;48.850;8.938;2023-07-02T06:44:02;26.27;;;24.40;;
7587;SDS011;3835;48.850;8.938;2023-07-02T06:46:31;25.10;;;23.20;;
7587;SDS011;3835;48.850;8.938;2023-07-02T06:48:58;22.67;;;21.07;;
7587;SDS011;3835;48.850;8.938;2023-07-02T06:51:24;31.63;;;29.87;;
7587;SDS011;3835;48.850;8.938;2023-07-02T06:53:52;24.27;;;22.53;;
7587;SDS011;3835;48.850;8.938;2023-07-02T06:56:19;21.33;;;19.47;;
7587;SDS011;3835;48.850;8.938;2023-07-02T06:58:45;26.30;;;24.50;;
7587;SDS011;3835;48.850;8.938;2023-07-02T07:01:12;29.90;;;27.63;;
7587;SDS011;3835;48.850;8.938;2023-07-02T07:03:40;25.63;;;23.43;;
7587;SDS011;3835;48.850;8.938;2023-07-02T07:06:07;26.37;;;24.10;;
7587;SDS011;3835;48.850;8.938;2023-07-02T07:08:36;30.00;;;27.80;;
7587;SDS011;3835;48.850;8.938;2023-07-02T07:11:04;32.57;;;30.20;;
7587;SDS011;3835;48.850;8.938;2023-07-02T07:13:31;25.93;;;23.60;;
7587;SDS011;3835;48.850;8.938;2023-07-02T07:15:57;25.63;;;23.13;;
7587;SDS011;3835;48.850;8.938;2023-07-02T07:18:24;25.67;;;23.47;;
7587;SDS011;3835;48.850;8.938;2023-07-02T07:20:52;26.70;;;24.47;;
7587;SDS011;3835;48.850;8.938;2023-07-02T07:23:19;27.17;;;25.13;;
7587;SDS011;3835;48.850;8.938;2023-07-02T07:25:46;29.77;;;27.63;;
7587;SDS011;3835;48.850;8.938;2023-07-02T07:28:13;24.70;;;22.60;;
7587;SDS011;3835;48.850;8.938;2023-07-02T07:30:41;26.63;;;24.50;;
7587;SDS011;3835;48.850;8.938;2023-07-02T07:33:08;24.97;;;22.53;;
7587;SDS011;3835;48.850;8.938;2023-07-02T07:35:36;29.83;;;27.53;;
7587;SDS011;3835;48.850;8.938;2023-07-02T07:38:04;26.57;;;24.23;;
7587;SDS011;3835;48.850;8.938;2023-07-02T07:40:31;27.13;;;25.00;;
7587;SDS011;3835;48.850;8.938;2023-07-02T07:42:57;23.83;;;21.73;;
7587;SDS011;3835;48.850;8.938;2023-07-02T07:45:24;30.13;;;27.47;;
7587;SDS011;3835;48.850;8.938;2023-07-02T07:47:51;27.20;;;24.83;;
7587;SDS011;3835;48.850;8.938;2023-07-02T07:50:18;26.40;;;24.30;;
7587;SDS011;3835;48.850;8.938;2023-07-02T07:52:45;26.63;;;24.10;;
7587;SDS011;3835;48.850;8.938;2023-07-02T07:55:13;30.53;;;27.93;;
7587;SDS011;3835;48.850;8.938;2023-07-02T07:57:39;26.80;;;24.30;;
7587;SDS011;3835;48.850;8.938;2023-07-02T08:00:07;27.67;;;25.00;;
7587;SDS011;3835;48.850;8.938;2023-07-02T08:02:36;28.90;;;26.37;;
7587;SDS011;3835;48.850;8.938;2023-07-02T08:05:03;31.30;;;28.60;;
7587;SDS011;3835;48.850;8.938;2023-07-02T08:07:30;28.60;;;26.10;;
7587;SDS011;3835;48.850;8.938;2023-07-02T08:09:58;28.07;;;25.07;;
7587;SDS011;3835;48.850;8.938;2023-07-02T08:12:26;23.67;;;21.37;;
7587;SDS011;3835;48.850;8.938;2023-07-02T08:14:54;24.07;;;21.90;;
7587;SDS011;3835;48.850;8.938;2023-07-02T08:17:21;27.33;;;24.60;;
7587;SDS011;3835;48.850;8.938;2023-07-02T08:19:48;26.23;;;23.83;;
7587;SDS011;3835;48.850;8.938;2023-07-02T08:22:14;24.40;;;22.00;;
7587;SDS011;3835;48.850;8.938;2023-07-02T08:24:41;24.43;;;21.87;;
7587;SDS011;3835;48.850;8.938;2023-07-02T08:27:08;24.37;;;21.87;;
7587;SDS011;3835;48.850;8.938;2023-07-02T08:29:36;24.83;;;22.33;;
7587;SDS011;3835;48.850;8.938;2023-07-02T08:32:03;22.83;;;20.70;;
7587;SDS011;3835;48.850;8.938;2023-07-02T08:34:30;23.37;;;21.00;;
7587;SDS011;3835;48.850;8.938;2023-07-02T08:36:57;24.73;;;22.27;;
7587;SDS011;3835;48.850;8.938;2023-07-02T08:39:24;25.13;;;22.60;;
7587;SDS011;3835;48.850;8.938;2023-07-02T08:41:50;24.43;;;22.20;;
7587;SDS011;3835;48.850;8.938;2023-07-02T08:44:19;25.10;;;22.93;;
7587;SDS011;3835;48.850;8.938;2023-07-02T08:46:48;26.20;;;23.47;;
7587;SDS011;3835;48.850;8.938;2023-07-02T08:49:18;25.33;;;22.87;;
7587;SDS011;3835;48.850;8.938;2023-07-02T08:51:45;25.63;;;23.10;;
7587;SDS011;3835;48.850;8.938;2023-07-02T08:54:12;23.43;;;20.93;;
7587;SDS011;3835;48.850;8.938;2023-07-02T08:56:39;24.97;;;22.40;;
7587;SDS011;3835;48.850;8.938;2023-07-02T08:59:07;25.13;;;22.93;;
7587;SDS011;3835;48.850;8.938;2023-07-02T09:01:44;24.70;;;22.00;;
7587;SDS011;3835;48.850;8.938;2023-07-02T09:04:16;23.90;;;21.50;;
7587;SDS011;3835;48.850;8.938;2023-07-02T09:06:43;27.93;;;25.33;;
7587;SDS011;3835;48.850;8.938;2023-07-02T09:09:10;24.07;;;21.73;;
7587;SDS011;3835;48.850;8.938;2023-07-02T09:11:46;25.00;;;22.50;;
7587;SDS011;3835;48.850;8.938;2023-07-02T09:14:23;26.93;;;24.33;;
7587;SDS011;3835;48.850;8.938;2023-07-02T09:17:00;24.43;;;22.10;;
7587;SDS011;3835;48.850;8.938;2023-07-02T09:19:29;25.13;;;22.63;;
7587;SDS011;3835;48.850;8.938;2023-07-02T09:21:57;26.57;;;23.27;;
7587;SDS011;3835;48.850;8.938;2023-07-02T09:24:25;25.50;;;22.77;;
7587;SDS011;3835;48.850;8.938;2023-07-02T09:26:54;27.97;;;25.53;;
7587;SDS011;3835;48.850;8.938;2023-07-02T09:29:23;24.23;;;21.80;;
7587;SDS011;3835;48.850;8.938;2023-07-02T09:31:51;27.43;;;24.63;;
7587;SDS011;3835;48.850;8.938;2023-07-02T09:34:18;24.33;;;22.10;;
7587;SDS011;3835;48.850;8.938;2023-07-02T09:36:46;25.37;;;22.83;;
7587;SDS011;3835;48.850;8.938;2023-07-02T09:39:14;24.17;;;21.77;;
7587;SDS011;3835;48.850;8.938;2023-07-02T09:41:45;24.50;;;22.10;;
7587;SDS011;3835;48.850;8.938;2023-07-02T09:44:14;25.30;;;22.00;;
7587;SDS011;3835;48.850;8.938;2023-07-02T09:46:43;28.10;;;25.63;;
7587;SDS011;3835;48.850;8.938;2023-07-02T09:49:16;28.73;;;26.13;;
7587;SDS011;3835;48.850;8.938;2023-07-02T09:51:48;23.60;;;21.30;;
7587;SDS011;3835;48.850;8.938;2023-07-02T09:54:16;25.77;;;22.93;;
7587;SDS011;3835;48.850;8.938;2023-07-02T09:56:45;25.80;;;21.73;;
7587;SDS011;3835;48.850;8.938;2023-07-02T09:59:12;24.83;;;22.40;;
7587;SDS011;3835;48.850;8.938;2023-07-02T10:01:39;24.97;;;22.57;;
7587;SDS011;3835;48.850;8.938;2023-07-02T10:04:12;24.17;;;21.73;;
7587;SDS011;3835;48.850;8.938;2023-07-02T10:06:44;24.60;;;22.10;;
7587;SDS011;3835;48.850;8.938;2023-07-02T10:09:13;23.13;;;20.80;;
7587;SDS011;3835;48.850;8.938;2023-07-02T10:11:40;22.60;;;20.27;;
7587;SDS011;3835;48.850;8.938;2023-07-02T10:14:07;23.20;;;20.70;;
7587;SDS011;3835;48.850;8.938;2023-07-02T10:16:34;24.73;;;22.27;;
7587;SDS011;3835;48.850;8.938;2023-07-02T10:19:13;25.23;;;22.23;;
7587;SDS011;3835;48.850;8.938;2023-07-02T10:21:40;24.53;;;22.13;;
7587;SDS011;3835;48.850;8.938;2023-07-02T10:24:10;25.30;;;22.87;;
7587;SDS011;3835;48.850;8.938;2023-07-02T10:26:50;22.80;;;19.80;;
7587;SDS011;3835;48.850;8.938;2023-07-02T10:29:18;24.60;;;21.43;;
7587;SDS011;3835;48.850;8.938;2023-07-02T10:31:49;23.73;;;21.23;;
7587;SDS011;3835;48.850;8.938;2023-07-02T10:34:27;25.67;;;23.20;;
7587;SDS011;3835;48.850;8.938;2023-07-02T10:36:55;24.57;;;22.33;;
7587;SDS011;3835;48.850;8.938;2023-07-02T10:39:22;26.30;;;23.77;;
7587;SDS011;3835;48.850;8.938;2023-07-02T10:41:50;26.23;;;23.70;;
7587;SDS011;3835;48.850;8.938;2023-07-02T10:44:17;26.60;;;24.10;;
7587;SDS011;3835;48.850;8.938;2023-07-02T10:46:44;24.33;;;22.30;;
7587;SDS011;3835;48.850;8.938;2023-07-02T10:49:11;24.03;;;21.63;;
7587;SDS011;3835;48.850;8.938;2023-07-02T10:51:38;25.30;;;22.80;;
7587;SDS011;3835;48.850;8.938;2023-07-02T10:54:05;25.07;;;22.63;;
7587;SDS011;3835;48.850;8.938;2023-07-02T10:56:32;23.40;;;21.13;;
7587;SDS011;3835;48.850;8.938;2023-07-02T10:59:02;25.40;;;23.10;;
7587;SDS011;3835;48.850;8.938;2023-07-02T11:01:30;27.47;;;21.47;;
7587;SDS011;3835;48.850;8.938;2023-07-02T11:04:01;23.60;;;21.60;;
7587;SDS011;3835;48.850;8.938;2023-07-02T11:06:29;24.50;;;22.23;;
7587;SDS011;3835;48.850;8.938;2023-07-02T11:08:57;24.40;;;22.23;;
7587;SDS011;3835;48.850;8.938;2023-07-02T11:11:25;26.00;;;23.73;;
7587;SDS011;3835;48.850;8.938;2023-07-02T11:13:52;23.00;;;20.60;;
7587;SDS011;3835;48.850;8.938;2023-07-02T11:16:21;24.33;;;21.83;;
7587;SDS011;3835;48.850;8.938;2023-07-02T11:18:51;24.23;;;21.90;;
7587;SDS011;3835;48.850;8.938;2023-07-02T11:21:18;27.20;;;24.50;;
7587;SDS011;3835;48.850;8.938;2023-07-02T11:23:45;23.43;;;21.03;;
7587;SDS011;3835;48.850;8.938;2023-07-02T11:26:12;24.90;;;22.50;;
7587;SDS011;3835;48.850;8.938;2023-07-02T11:28:47;23.80;;;21.33;;
7587;SDS011;3835;48.850;8.938;2023-07-02T11:31:25;25.63;;;23.33;;
7587;SDS011;3835;48.850;8.938;2023-07-02T11:33:52;25.33;;;22.33;;
7587;SDS011;3835;48.850;8.938;2023-07-02T11:36:20;24.40;;;21.90;;
7587;SDS011;3835;48.850;8.938;2023-07-02T11:38:49;22.10;;;19.90;;
7587;SDS011;3835;48.850;8.938;2023-07-02T11:41:16;26.20;;;23.80;;
7587;SDS011;3835;48.850;8.938;2023-07-02T11:43:43;28.53;;;25.53;;
7587;SDS011;3835;48.850;8.938;2023-07-02T11:46:10;27.30;;;22.97;;
7587;SDS011;3835;48.850;8.938;2023-07-02T11:48:38;24.60;;;22.07;;
7587;SDS011;3835;48.850;8.938;2023-07-02T11:51:05;25.50;;;22.90;;
7587;SDS011;3835;48.850;8.938;2023-07-02T11:53:32;24.63;;;22.33;;
7587;SDS011;3835;48.850;8.938;2023-07-02T11:55:59;24.73;;;22.33;;
7587;SDS011;3835;48.850;8.938;2023-07-02T11:58:25;23.03;;;20.47;;
7587;SDS011;3835;48.850;8.938;2023-07-02T12:00:52;22.50;;;20.27;;
7587;SDS011;3835;48.850;8.938;2023-07-02T12:03:19;23.60;;;21.07;;
7587;SDS011;3835;48.850;8.938;2023-07-02T12:05:47;23.63;;;21.43;;
7587;SDS011;3835;48.850;8.938;2023-07-02T12:08:14;24.93;;;22.47;;
7587;SDS011;3835;48.850;8.938;2023-07-02T12:10:40;24.13;;;21.47;;
7587;SDS011;3835;48.850;8.938;2023-07-02T12:13:07;25.10;;;22.50;;
7587;SDS011;3835;48.850;8.938;2023-07-02T12:15:34;25.93;;;23.63;;
7587;SDS011;3835;48.850;8.938;2023-07-02T12:18:01;24.83;;;22.47;;
7587;SDS011;3835;48.850;8.938;2023-07-02T12:20:28;24.83;;;22.63;;
7587;SDS011;3835;48.850;8.938;2023-07-02T12:22:56;26.70;;;24.13;;
7587;SDS011;3835;48.850;8.938;2023-07-02T12:25:23;24.80;;;22.27;;
7587;SDS011;3835;48.850;8.938;2023-07-02T12:27:49;25.60;;;23.20;;
7587;SDS011;3835;48.850;8.938;2023-07-02T12:30:16;25.73;;;23.17;;
7587;SDS011;3835;48.850;8.938;2023-07-02T12:32:44;26.10;;;23.73;;
7587;SDS011;3835;48.850;8.938;2023-07-02T12:35:11;24.27;;;21.87;;
7587;SDS011;3835;48.850;8.938;2023-07-02T12:37:42;24.03;;;21.53;;
7587;SDS011;3835;48.850;8.938;2023-07-02T12:40:11;23.73;;;21.47;;
7587;SDS011;3835;48.850;8.938;2023-07-02T12:42:39;24.80;;;22.43;;
7587;SDS011;3835;48.850;8.938;2023-07-02T12:45:07;22.77;;;20.67;;
7587;SDS011;3835;48.850;8.938;2023-07-02T12:47:34;25.73;;;23.20;;
7587;SDS011;3835;48.850;8.938;2023-07-02T12:50:01;27.27;;;24.87;;
7587;SDS011;3835;48.850;8.938;2023-07-02T12:52:29;23.53;;;21.13;;
7587;SDS011;3835;48.850;8.938;2023-07-02T12:54:56;23.57;;;21.53;;
7587;SDS011;3835;48.850;8.938;2023-07-02T12:57:24;22.67;;;20.13;;
7587;SDS011;3835;48.850;8.938;2023-07-02T12:59:52;23.33;;;21.13;;
7587;SDS011;3835;48.850;8.938;2023-07-02T13:02:18;22.90;;;20.77;;
7587;SDS011;3835;48.850;8.938;2023-07-02T13:04:45;25.33;;;22.83;;
7587;SDS011;3835;48.850;8.938;2023-07-02T13:07:12;26.27;;;23.67;;
7587;SDS011;3835;48.850;8.938;2023-07-02T13:09:39;23.50;;;21.40;;
7587;SDS011;3835;48.850;8.938;2023-07-02T13:12:07;24.07;;;21.73;;
7587;SDS011;3835;48.850;8.938;2023-07-02T13:14:35;23.97;;;21.87;;
7587;SDS011;3835;48.850;8.938;2023-07-02T13:17:02;26.20;;;23.63;;
7587;SDS011;3835;48.850;8.938;2023-07-02T13:19:30;25.97;;;23.57;;
7587;SDS011;3835;48.850;8.938;2023-07-02T13:21:57;23.87;;;21.60;;
7587;SDS011;3835;48.850;8.938;2023-07-02T13:24:24;23.77;;;21.43;;
7587;SDS011;3835;48.850;8.938;2023-07-02T13:26:51;23.90;;;21.60;;
7587;SDS011;3835;48.850;8.938;2023-07-02T13:29:17;23.70;;;21.43;;
7587;SDS011;3835;48.850;8.938;2023-07-02T13:31:46;24.30;;;21.77;;
7587;SDS011;3835;48.850;8.938;2023-07-02T13:34:12;22.40;;;20.60;;
7587;SDS011;3835;48.850;8.938;2023-07-02T13:36:39;24.00;;;21.77;;
7587;SDS011;3835;48.850;8.938;2023-07-02T13:39:06;24.30;;;22.10;;
7587;SDS011;3835;48.850;8.938;2023-07-02T13:41:33;24.20;;;22.00;;
7587;SDS011;3835;48.850;8.938;2023-07-02T13:44:00;25.87;;;23.43;;
7587;SDS011;3835;48.850;8.938;2023-07-02T13:46:27;24.70;;;22.27;;
7587;SDS011;3835;48.850;8.938;2023-07-02T13:48:55;23.10;;;20.70;;
7587;SDS011;3835;48.850;8.938;2023-07-02T13:51:21;25.00;;;22.53;;
7587;SDS011;3835;48.850;8.938;2023-07-02T13:53:48;22.97;;;20.80;;
7587;SDS011;3835;48.850;8.938;2023-07-02T13:56:15;21.80;;;19.80;;
7587;SDS011;3835;48.850;8.938;2023-07-02T14:01:13;22.17;;;20.10;;
7587;SDS011;3835;48.850;8.938;2023-07-02T14:03:40;21.73;;;19.63;;
7587;SDS011;3835;48.850;8.938;2023-07-02T14:06:07;24.83;;;22.53;;
7587;SDS011;3835;48.850;8.938;2023-07-02T14:08:34;26.67;;;24.17;;
7587;SDS011;3835;48.850;8.938;2023-07-02T14:11:01;23.83;;;21.57;;
7587;SDS011;3835;48.850;8.938;2023-07-02T14:13:28;24.83;;;22.67;;
7587;SDS011;3835;48.850;8.938;2023-07-02T14:15:56;26.30;;;23.83;;
7587;SDS011;3835;48.850;8.938;2023-07-02T14:18:23;22.43;;;20.23;;
7587;SDS011;3835;48.850;8.938;2023-07-02T14:20:49;24.67;;;22.47;;
7587;SDS011;3835;48.850;8.938;2023-07-02T14:23:16;22.87;;;20.60;;
7587;SDS011;3835;48.850;8.938;2023-07-02T14:25:43;24.57;;;22.17;;
7587;SDS011;3835;48.850;8.938;2023-07-02T14:28:10;22.80;;;20.37;;
7587;SDS011;3835;48.850;8.938;2023-07-02T14:30:37;21.40;;;19.33;;
7587;SDS011;3835;48.850;8.938;2023-07-02T14:33:05;23.77;;;21.67;;
7587;SDS011;3835;48.850;8.938;2023-07-02T14:35:32;23.80;;;21.33;;
7587;SDS011;3835;48.850;8.938;2023-07-02T14:38:00;23.60;;;21.40;;
7587;SDS011;3835;48.850;8.938;2023-07-02T14:40:27;21.87;;;19.67;;
7587;SDS011;3835;48.850;8.938;2023-07-02T14:42:54;23.60;;;21.57;;
7587;SDS011;3835;48.850;8.938;2023-07-02T14:45:20;23.43;;;21.37;;
7587;SDS011;3835;48.850;8.938;2023-07-02T14:47:47;22.77;;;20.60;;
7587;SDS011;3835;48.850;8.938;2023-07-02T14:50:15;25.30;;;23.27;;
7587;SDS011;3835;48.850;8.938;2023-07-02T14:52:42;27.47;;;25.07;;